createdAt,value
2023-03-23T15:57:53.274Z,14.98
2023-03-23T16:00:23.554Z,14.94
2023-03-23T16:02:56.258Z,15.03
2023-03-23T16:05:28.771Z,14.84
2023-03-23T16:07:58.817Z,14.82
2023-03-23T16:10:28.567Z,14.74
2023-03-23T16:12:58.179Z,14.73
2023-03-23T16:15:26.364Z,14.61
2023-03-23T16:17:54.541Z,14.62
2023-03-23T16:20:24.921Z,14.53
2023-03-23T16:22:54.982Z,14.56
2023-03-23T16:25:24.910Z,14.50
2023-03-23T16:27:54.727Z,14.53
2023-03-23T16:30:25.213Z,14.50
2023-03-23T16:32:55.505Z,14.49
2023-03-23T16:35:25.398Z,14.52
2023-03-23T16:38:08.334Z,14.55
2023-03-23T16:40:42.295Z,14.48
2023-03-23T16:43:10.990Z,14.46
2023-03-23T16:45:43.756Z,14.50
2023-03-23T16:48:13.858Z,14.56
2023-03-23T16:50:43.702Z,14.45
2023-03-23T16:53:13.404Z,14.36
2023-03-23T16:55:47.915Z,14.42
2023-03-23T16:58:18.175Z,14.41
2023-03-23T17:00:49.524Z,14.35
2023-03-23T17:03:18.388Z,14.24
2023-03-23T17:05:50.476Z,14.19
2023-03-23T17:08:19.032Z,14.42
2023-03-23T17:10:50.685Z,14.40
2023-03-23T17:13:19.186Z,14.27
2023-03-23T17:15:48.328Z,14.22
2023-03-23T17:18:17.336Z,14.25
2023-03-23T17:20:45.644Z,14.26
2023-03-23T17:23:14.342Z,14.21
2023-03-23T17:25:45.624Z,13.97
2023-03-23T17:28:16.607Z,13.99
2023-03-23T17:30:46.826Z,13.95
2023-03-23T17:33:15.604Z,13.92
2023-03-23T17:35:44.562Z,13.81
2023-03-23T17:38:13.309Z,13.66
2023-03-23T17:40:41.662Z,13.58
2023-03-23T17:43:10.127Z,13.54
2023-03-23T17:45:40.016Z,13.61
2023-03-23T17:48:08.669Z,13.53
2023-03-23T17:50:41.219Z,13.57
2023-03-23T17:53:09.985Z,13.52
2023-03-23T17:55:41.589Z,13.59
2023-03-23T17:58:10.710Z,13.33
2023-03-23T18:00:40.440Z,13.39
2023-03-23T18:03:10.912Z,13.62
2023-03-23T18:05:39.809Z,13.55
2023-03-23T18:08:08.715Z,13.51
2023-03-23T18:10:43.487Z,13.25
2023-03-23T18:13:14.009Z,13.40
2023-03-23T18:15:47.089Z,13.44
2023-03-23T18:18:16.152Z,13.37
2023-03-23T18:20:44.596Z,13.36
2023-03-23T18:23:13.458Z,13.27
2023-03-23T18:25:42.164Z,13.26
2023-03-23T18:28:10.524Z,13.37
2023-03-23T18:30:39.361Z,13.35
2023-03-23T18:33:11.098Z,13.41
2023-03-23T18:35:41.555Z,13.42
2023-03-23T18:38:10.848Z,13.45
2023-03-23T18:40:44.379Z,13.41
2023-03-23T18:43:13.094Z,13.26
2023-03-23T18:45:41.930Z,13.38
2023-03-23T18:48:12.496Z,13.34
2023-03-23T18:50:40.644Z,13.38
2023-03-23T18:53:10.613Z,13.36
2023-03-23T18:55:39.513Z,13.35
2023-03-23T18:58:07.950Z,13.34
2023-03-23T19:00:38.436Z,13.36
2023-03-23T19:03:09.909Z,13.39
2023-03-23T19:05:41.879Z,13.36
2023-03-23T19:08:10.954Z,13.41
2023-03-23T19:10:41.343Z,13.44
2023-03-23T19:13:11.828Z,13.32
2023-03-23T19:15:41.269Z,13.30
2023-03-23T19:18:10.807Z,13.30
2023-03-23T19:21:10.802Z,13.25
2023-03-23T19:23:29.776Z,13.26
2023-03-23T19:25:58.241Z,13.25
2023-03-23T19:31:01.102Z,13.10
2023-03-23T19:33:29.845Z,13.07
2023-03-23T19:36:09.334Z,13.04
2023-03-23T19:38:41.141Z,12.83
2023-03-23T19:41:09.705Z,12.75
2023-03-23T19:43:38.767Z,12.85
2023-03-23T19:46:10.762Z,12.78
2023-03-23T19:48:39.972Z,12.69
2023-03-23T19:51:10.683Z,12.77
2023-03-23T19:53:39.868Z,12.67
2023-03-23T19:56:14.613Z,12.62
2023-03-23T19:58:43.136Z,12.47
2023-03-23T20:01:12.213Z,12.54
2023-03-23T20:03:41.026Z,12.52
2023-03-23T20:06:15.541Z,12.57
2023-03-23T20:08:46.336Z,12.52
2023-03-23T20:11:17.259Z,12.59
2023-03-23T20:13:47.099Z,12.55
2023-03-23T20:16:17.776Z,12.44
2023-03-23T20:18:47.620Z,12.49
2023-03-23T20:21:22.684Z,12.48
2023-03-23T20:23:54.885Z,12.40
2023-03-23T20:26:27.947Z,12.38
2023-03-23T20:28:56.385Z,12.35
2023-03-23T20:31:26.770Z,12.40
2023-03-23T20:34:02.373Z,12.32
2023-03-23T20:36:35.801Z,12.33
2023-03-23T20:39:07.110Z,12.26
2023-03-23T20:41:38.885Z,12.22
2023-03-23T20:44:08.664Z,12.29
2023-03-23T20:46:37.208Z,12.26
2023-03-23T20:49:06.242Z,12.24
2023-03-23T20:51:37.497Z,12.15
2023-03-23T20:54:06.456Z,12.27
2023-03-23T20:56:35.144Z,12.31
2023-03-23T20:59:05.946Z,12.39
2023-03-23T21:01:34.618Z,12.42
2023-03-23T21:04:03.940Z,12.40
2023-03-23T21:06:34.259Z,12.41
2023-03-23T21:09:05.985Z,12.52
2023-03-23T21:11:35.455Z,12.59
2023-03-23T21:14:04.010Z,12.48
2023-03-23T21:16:32.234Z,12.38
2023-03-23T21:19:00.842Z,12.41
2023-03-23T21:21:29.503Z,12.34
2023-03-23T21:24:02.934Z,12.35
2023-03-23T21:26:33.016Z,12.35
2023-03-23T21:29:01.252Z,12.38
2023-03-23T21:31:33.373Z,12.58
2023-03-23T21:34:02.337Z,12.58
2023-03-23T21:36:30.936Z,12.54
2023-03-23T21:39:00.200Z,12.66
2023-03-23T21:41:41.811Z,12.65
2023-03-23T21:44:12.513Z,12.80
2023-03-23T21:46:43.898Z,12.79
2023-03-23T21:49:15.078Z,12.84
2023-03-23T21:51:44.392Z,12.93
2023-03-23T21:54:13.229Z,12.91
2023-03-23T21:56:42.849Z,12.97
2023-03-23T21:59:12.732Z,13.05
2023-03-23T22:01:41.643Z,12.96
2023-03-23T22:04:10.500Z,12.99
2023-03-23T22:06:39.097Z,12.94
2023-03-23T22:09:07.385Z,12.78
2023-03-23T22:11:36.946Z,12.86
2023-03-23T22:14:06.266Z,12.85
2023-03-23T22:16:36.527Z,12.80
2023-03-23T22:19:05.339Z,12.71
2023-03-23T22:21:33.577Z,12.56
2023-03-23T22:24:03.906Z,12.60
2023-03-23T22:26:32.666Z,12.51
2023-03-23T22:29:05.101Z,12.40
2023-03-23T22:31:36.334Z,12.45
2023-03-23T22:34:04.857Z,12.37
2023-03-23T22:36:34.537Z,12.42
2023-03-23T22:39:06.165Z,12.42
2023-03-23T22:41:37.043Z,12.51
2023-03-23T22:44:07.181Z,12.55
2023-03-23T22:46:37.010Z,12.43
2023-03-23T22:49:05.432Z,12.32
2023-03-23T22:51:33.625Z,12.44
2023-03-23T22:54:02.010Z,12.43
2023-03-23T22:56:30.611Z,12.41
2023-03-23T22:59:00.301Z,12.32
2023-03-23T23:01:29.145Z,12.37
2023-03-23T23:03:58.974Z,12.40
2023-03-23T23:06:27.778Z,12.32
2023-03-23T23:08:56.613Z,12.28
2023-03-23T23:11:27.045Z,12.37
2023-03-23T23:13:55.194Z,12.52
2023-03-23T23:16:24.533Z,12.48
2023-03-23T23:18:53.217Z,12.34
2023-03-23T23:21:26.166Z,12.37
2023-03-23T23:23:55.101Z,12.23
2023-03-23T23:26:23.687Z,12.41
2023-03-23T23:28:52.950Z,12.37
2023-03-23T23:31:26.549Z,12.43
2023-03-23T23:34:00.141Z,12.55
2023-03-23T23:36:32.321Z,12.56
2023-03-23T23:39:02.164Z,12.56
2023-03-23T23:41:31.241Z,12.61
2023-03-23T23:44:00.228Z,12.61
2023-03-23T23:46:29.016Z,12.57
2023-03-23T23:48:57.698Z,12.69
2023-03-23T23:51:27.568Z,12.63
2023-03-23T23:53:59.120Z,12.69
2023-03-23T23:56:29.075Z,12.59
2023-03-23T23:58:57.842Z,12.47
